METAR Data
IDs: Format: Raw Decoded Include TAF

Data at: 0340 UTC 18 Jun 2019

PPIT 180256Z AUTO 30014KT 10SM CLR 21/08 A2963 RMK AO2 SLP034 T02110083 57010 TSNO
PPIT 180156Z AUTO 31018KT 10SM CLR 21/09 A2964 RMK AO2 SLP036 T02110089 TSNO
PPIT 180056Z AUTO 30017KT 10SM CLR 22/08 A2965 RMK AO2 SLP041 T02170083 TSNO
PPIT 172356Z AUTO 32018G21KT 10SM CLR 22/10 A2966 RMK AO2 SLP044 T02170100 10222 20167 58006 TSNO
PPIT 172056Z AUTO 35017KT 10SM BKN085 BKN120 21/12 A2968 RMK AO2 SLP050 T02110117 56008 TSNO
PPIT 171956Z AUTO 33017KT 10SM BKN085 19/12 A2968 RMK AO2 SLP051 T01940117 TSNO
PPIT 171856Z AUTO 32010KT 10SM SCT120 17/14 A2969 RMK AO2 SLP055 T01720139 TSNO
PPIT 171756Z AUTO 30008KT 10SM FEW120 17/14 A2970 RMK AO2 SLP058 T01670139 10167 20133 58004 TSNO
PPIT 171656Z AUTO 33004KT 10SM CLR 16/14 A2971 RMK AO2 SLP060 T01560139 TSNO
PPIT 171556Z AUTO 33008KT 10SM CLR 14/14 A2971 RMK AO2 SLP060 T01440139 TSNO
PPIT 171456Z AUTO 32005KT 10SM CLR 14/14 A2971 RMK AO2 SLP062 T01440144 56002 TSNO
PPIT 171356Z AUTO 33006KT 10SM CLR 14/14 A2972 RMK AO2 SLP062 T01390139 TSNO
PPIT 171256Z AUTO 35006KT 10SM CLR 14/14 A2972 RMK AO2 SLP063 T01390139 TSNO
PPIT 171156Z AUTO 01005KT 10SM CLR 14/13 A2972 RMK AO2 SLP064 70001 T01390133 10167 20133 57002 TSNO
PPIT 171056Z AUTO 35005KT 10SM CLR 14/14 A2972 RMK AO2 SLP064 T01390139 TSNO
PPIT 170956Z AUTO 01006KT 10SM CLR 14/14 A2973 RMK AO2 SLP066 T01440139 TSNO
PPIT 170856Z AUTO 01008KT 10SM CLR 15/14 A2973 RMK AO2 SLP066 T01500139 401890122 53001 TSNO
PPIT 170756Z AUTO 35006KT 10SM CLR 16/15 A2972 RMK AO2 SLP065 T01560150 TSNO
PPIT 170656Z AUTO 33007KT 10SM CLR 16/14 A2972 RMK AO2 SLP065 T01610144 TSNO
PPIT 170556Z AUTO 31010KT 10SM FEW046 16/13 A2972 RMK AO2 SLP065 60000 T01610133 10172 20156 55004 TSNO
PPIT 170456Z AUTO 33013KT 10SM SCT060 BKN085 17/12 A2972 RMK AO2 SLP064 T01720122 TSNO
PPIT 170356Z AUTO 33007KT 10SM FEW049 BKN065 OVC080 17/13 A2973 RMK AO2 SLP067 T01670128 TSNO
PPIT 170256Z AUTO 36004KT 10SM OVC070 16/12 A2974 RMK AO2 RAB07E54 SLP069 P0000 60000 T01610122 58012 TSNO
PPIT 170156Z AUTO 05009KT 10SM FEW035 BKN075 OVC090 17/12 A2975 RMK AO2 RAB0057E50 SLP074 P0000 T01670117 TSNO
PPIT 162356Z AUTO 02009KT 10SM SCT047 BKN065 OVC100 17/12 A2977 RMK AO2 SLP081 60001 T01670117 10189 20144 55006 TSNO
PPIT 162256Z AUTO 31005KT 10SM SCT100 18/09 A2976 RMK AO2 SLP079 T01830089 TSNO
PPIT 162156Z AUTO 03005KT 10SM FEW120 18/09 A2978 RMK AO2 SLP084 T01830089 TSNO
PPIT 162056Z AUTO 01007KT 10SM BKN100 OVC120 17/08 A2979 RMK AO2 SLP087 60001 T01720083 58001 TSNO
PPIT 161956Z AUTO VRB04KT 10SM OVC120 17/08 A2979 RMK AO2 SLP088 T01720083 TSNO
PPIT 161856Z AUTO 05006KT 10SM FEW120 16/09 A2979 RMK AO2 SLP088 P0001 T01560094 TSNO
PPIT 161756Z AUTO 08007KT 10SM SCT120 14/09 A2979 RMK AO2 SLP089 T01440094 10144 20122 51008 TSNO
PPIT 161656Z AUTO 07006KT 10SM CLR 13/10 A2979 RMK AO2 SLP087 T01330100 TSNO
PPIT 161556Z AUTO 08007KT 10SM CLR 13/10 A2978 RMK AO2 SLP084 T01330100 TSNO